Terminal Aerodrome Forecast
Issued by NWS

Home | Current Version | Previous Version | Text Only | Print | Product List | Glossary On
Versions: 1 2 3 4 5 6 7 8 9 10 11 12 13 14 15 16 17 18 19 20 21 22 23 24 25 26 27 28 29 30 31 32 33 34 35 36 37
000
FTAK31 PAFA 291202 CCA
TAFAOT
TAF COR
PAOT 291202Z 2912/3012 09025G31KT P6SM SCT040 OVC150
      TEMPO 2914/2916 2SM -SN BLSN BKN025 OVC060
     FM291600 10025KT 1 1/2SM -SN BLSN BKN025
     FM292100 10023G30KT 2SM -SHSN BLSN BKN020 OVC040=

USA.gov is the U.S. government's official web portal to all federal, state and local government web resources and services.